createdAt,value
2022-12-23T00:01:26.735Z,73.43
2022-12-23T00:04:00.357Z,76.68
2022-12-23T00:06:28.717Z,85.72
2022-12-23T00:08:58.872Z,73.10
2022-12-23T00:11:28.360Z,69.97
2022-12-23T00:14:20.412Z,83.05
2022-12-23T00:16:51.571Z,75.97
2022-12-23T00:19:21.315Z,75.45
2022-12-23T00:21:49.857Z,73.70
2022-12-23T00:24:18.238Z,80.38
2022-12-23T00:26:46.713Z,80.78
2022-12-23T00:29:16.917Z,79.32
2022-12-23T00:31:45.592Z,73.43
2022-12-23T00:34:14.089Z,84.82
2022-12-23T00:36:44.542Z,78.88
2022-12-23T00:39:31.836Z,81.38
2022-12-23T00:42:17.617Z,76.75
2022-12-23T00:44:46.241Z,83.93
2022-12-23T00:47:36.339Z,82.95
2022-12-23T00:50:03.671Z,75.60
2022-12-23T00:52:33.294Z,69.00
2022-12-23T00:55:01.617Z,81.40
2022-12-23T00:57:30.027Z,82.78
2022-12-23T00:59:58.460Z,79.85
2022-12-23T01:02:44.163Z,80.97
2022-12-23T01:05:29.929Z,76.57
2022-12-23T01:07:59.580Z,87.95
2022-12-23T01:10:27.893Z,85.55
2022-12-23T01:12:56.168Z,89.43
2022-12-23T01:15:24.506Z,82.63
2022-12-23T01:17:52.834Z,84.57
2022-12-23T01:20:21.057Z,77.47
2022-12-23T01:22:49.367Z,80.50
2022-12-23T01:25:22.643Z,81.28
2022-12-23T01:27:50.973Z,82.55
2022-12-23T01:30:20.901Z,81.35
2022-12-23T01:32:49.306Z,85.65
2022-12-23T01:35:17.683Z,89.28
2022-12-23T01:37:45.850Z,86.13
2022-12-23T01:40:14.231Z,81.18
2022-12-23T01:42:45.485Z,79.70
2022-12-23T01:45:29.035Z,85.95
2022-12-23T01:48:00.285Z,83.03
2022-12-23T01:50:32.851Z,80.80
2022-12-23T01:53:07.975Z,81.22
2022-12-23T01:55:41.853Z,74.15
2022-12-23T01:58:15.116Z,74.43
2022-12-23T02:01:06.773Z,78.97
2022-12-23T02:03:44.725Z,72.70
2022-12-23T02:06:37.263Z,74.07
2022-12-23T02:09:18.880Z,83.22
2022-12-23T02:12:34.617Z,92.60
2022-12-23T02:15:34.228Z,84.22
2022-12-23T02:18:14.013Z,81.40
2022-12-23T02:21:06.889Z,85.85
2022-12-23T02:24:01.711Z,95.15
2022-12-23T02:27:00.897Z,92.30
2022-12-23T02:30:15.687Z,102.57
2022-12-23T02:33:03.565Z,128.30
2022-12-23T02:35:40.124Z,112.85
2022-12-23T02:38:11.819Z,110.35
2022-12-23T02:40:48.469Z,117.30
2022-12-23T02:43:21.295Z,143.60
2022-12-23T02:50:59.148Z,84.82
2022-12-23T02:53:32.975Z,138.45
2022-12-23T02:56:03.258Z,125.03
2022-12-23T02:58:36.688Z,176.70
2022-12-23T03:01:08.238Z,186.73
2022-12-23T03:03:39.212Z,83.25
2022-12-23T03:06:16.829Z,82.05
2022-12-23T03:08:46.148Z,78.72
2022-12-23T03:11:17.402Z,94.30
2022-12-23T03:14:07.130Z,136.93
2022-12-23T03:16:43.889Z,79.20
2022-12-23T03:19:21.196Z,123.15
2022-12-23T03:21:56.918Z,82.18
2022-12-23T03:24:37.575Z,98.07
2022-12-23T03:27:11.469Z,105.85
2022-12-23T03:29:45.190Z,108.43
2022-12-23T03:32:15.854Z,128.93
2022-12-23T03:34:49.664Z,95.18
2022-12-23T03:37:20.418Z,124.90
2022-12-23T03:39:53.733Z,73.50
2022-12-23T03:42:27.492Z,78.35
2022-12-23T03:45:28.391Z,85.68
2022-12-23T03:47:52.216Z,110.10
2022-12-23T03:50:24.516Z,99.88
2022-12-23T03:52:58.665Z,92.20
2022-12-23T03:55:32.950Z,83.03
2022-12-23T03:58:08.018Z,93.97
2022-12-23T04:00:42.364Z,80.15
2022-12-23T04:03:19.951Z,111.72
2022-12-23T04:05:54.488Z,123.45
2022-12-23T04:08:27.510Z,96.25
2022-12-23T04:10:55.807Z,116.20
2022-12-23T04:13:23.995Z,101.15
2022-12-23T04:15:52.262Z,102.22
2022-12-23T04:18:20.502Z,135.77
2022-12-23T04:20:50.037Z,98.47
2022-12-23T04:23:18.200Z,91.30
2022-12-23T04:25:46.378Z,76.55
2022-12-23T04:28:14.585Z,156.18
2022-12-23T04:30:42.781Z,135.13
2022-12-23T04:33:12.031Z,84.30
2022-12-23T04:35:40.453Z,94.18
2022-12-23T04:38:10.603Z,82.35
2022-12-23T04:40:38.754Z,95.05
2022-12-23T04:43:06.907Z,95.45
2022-12-23T04:45:35.069Z,105.78
2022-12-23T04:48:03.232Z,99.65
2022-12-23T04:50:31.490Z,100.07
2022-12-23T04:52:59.658Z,126.53
2022-12-23T04:55:29.269Z,76.53
2022-12-23T04:57:57.449Z,148.65
2022-12-23T05:00:25.782Z,103.82
2022-12-23T05:02:54.069Z,140.07
2022-12-23T05:05:22.380Z,85.22
2022-12-23T05:07:51.265Z,94.43
2022-12-23T05:10:19.596Z,76.63
2022-12-23T05:12:49.157Z,99.30
2022-12-23T05:15:17.352Z,80.53
2022-12-23T05:17:45.541Z,62.88
2022-12-23T05:20:13.770Z,82.45
2022-12-23T05:22:42.022Z,72.03
2022-12-23T05:25:10.887Z,113.32
2022-12-23T05:27:39.032Z,59.65
2022-12-23T05:32:55.722Z,94.60
2022-12-23T05:35:24.587Z,78.28
2022-12-23T05:37:53.121Z,64.00
2022-12-23T05:40:23.967Z,54.78
2022-12-23T05:42:55.703Z,75.28
2022-12-23T05:45:24.096Z,52.47
2022-12-23T05:47:52.321Z,59.58
2022-12-23T05:50:21.943Z,67.95
2022-12-23T05:52:50.166Z,63.10
2022-12-23T05:55:18.494Z,62.85
2022-12-23T05:57:46.643Z,126.70
2022-12-23T06:00:16.670Z,72.20
2022-12-23T06:02:49.980Z,83.53
2022-12-23T06:05:23.041Z,64.38
2022-12-23T06:07:51.242Z,59.17
2022-12-23T06:10:19.835Z,57.63
2022-12-23T06:12:48.225Z,49.08
2022-12-23T06:15:16.890Z,74.35
2022-12-23T06:17:45.015Z,81.05
2022-12-23T06:20:20.481Z,53.38
2022-12-23T06:22:50.587Z,51.13
2022-12-23T06:25:18.782Z,47.55
2022-12-23T06:27:47.314Z,69.50
2022-12-23T06:30:15.810Z,56.35
2022-12-23T06:32:44.021Z,52.35
2022-12-23T06:35:12.203Z,66.95
2022-12-23T06:37:40.470Z,58.15
2022-12-23T06:40:11.514Z,45.95
2022-12-23T06:42:39.839Z,58.53
2022-12-23T06:45:09.209Z,44.70
2022-12-23T06:47:37.484Z,42.88
2022-12-23T06:50:06.810Z,61.33
2022-12-23T06:52:34.948Z,62.67
2022-12-23T06:55:03.159Z,40.08
2022-12-23T06:57:33.130Z,42.70
2022-12-23T07:00:01.439Z,48.70
2022-12-23T07:02:30.191Z,48.97
2022-12-23T07:04:58.808Z,47.15
2022-12-23T07:07:26.990Z,60.63
2022-12-23T07:09:55.279Z,50.78
2022-12-23T07:12:23.495Z,50.47
2022-12-23T07:14:53.051Z,60.22
2022-12-23T07:17:21.142Z,62.13
2022-12-23T07:19:50.494Z,56.47
2022-12-23T07:22:18.851Z,58.90
2022-12-23T07:24:47.483Z,47.45
2022-12-23T07:27:15.733Z,53.15
2022-12-23T07:29:44.033Z,52.45
2022-12-23T07:32:14.771Z,60.58
2022-12-23T07:34:42.963Z,48.58
2022-12-23T07:37:11.195Z,49.42
2022-12-23T07:39:39.520Z,48.97
2022-12-23T07:44:56.024Z,57.53
2022-12-23T07:47:25.645Z,55.47
2022-12-23T07:49:53.810Z,48.97
2022-12-23T07:52:22.053Z,62.90
2022-12-23T07:54:50.229Z,49.70
2022-12-23T07:57:18.499Z,66.63
2022-12-23T07:59:46.861Z,49.42
2022-12-23T08:02:15.315Z,69.65
2022-12-23T08:04:46.600Z,63.97
2022-12-23T08:07:15.010Z,53.65
2022-12-23T08:09:43.207Z,58.83
2022-12-23T08:12:11.756Z,54.30
2022-12-23T08:14:39.971Z,67.72
2022-12-23T08:17:08.320Z,63.15
2022-12-23T08:19:36.572Z,77.07
2022-12-23T08:22:06.231Z,58.85
2022-12-23T08:24:34.382Z,59.47
2022-12-23T08:27:02.550Z,55.78
2022-12-23T08:29:36.030Z,57.33
2022-12-23T08:32:04.703Z,55.95
2022-12-23T08:34:32.918Z,62.05
2022-12-23T08:37:01.434Z,51.28
2022-12-23T08:39:31.143Z,68.63
2022-12-23T08:41:59.434Z,68.53
2022-12-23T08:44:28.427Z,58.90
2022-12-23T08:46:57.261Z,63.45
2022-12-23T08:49:25.589Z,57.72
2022-12-23T08:51:54.338Z,70.25
2022-12-23T08:54:23.926Z,67.20
2022-12-23T08:56:57.142Z,66.47
2022-12-23T08:59:25.787Z,59.00
2022-12-23T09:01:54.180Z,63.90
2022-12-23T09:04:22.705Z,74.75
2022-12-23T09:06:50.937Z,75.70
2022-12-23T09:09:19.115Z,69.75
2022-12-23T09:11:47.344Z,63.65
2022-12-23T09:14:16.909Z,65.15
2022-12-23T09:16:45.109Z,59.88
2022-12-23T09:19:13.281Z,64.00
2022-12-23T09:21:41.487Z,62.30
2022-12-23T09:24:09.753Z,61.10
2022-12-23T09:26:38.040Z,65.20
2022-12-23T09:29:06.317Z,63.33
2022-12-23T09:31:37.617Z,71.50
2022-12-23T09:34:07.158Z,66.65
2022-12-23T09:36:35.394Z,62.08
2022-12-23T09:39:03.795Z,66.25
2022-12-23T09:41:46.480Z,61.72
2022-12-23T09:44:34.528Z,67.35
2022-12-23T09:47:07.249Z,82.18
2022-12-23T09:49:37.928Z,59.13
2022-12-23T09:52:11.987Z,73.70
2022-12-23T09:54:46.996Z,85.15
2022-12-23T09:57:23.393Z,76.05
2022-12-23T10:00:04.477Z,64.25
2022-12-23T10:02:43.078Z,98.78
2022-12-23T10:05:23.325Z,63.15
2022-12-23T10:07:55.094Z,61.45
2022-12-23T10:10:34.846Z,77.22
2022-12-23T10:13:06.200Z,54.00
2022-12-23T10:15:39.141Z,56.67
2022-12-23T10:18:18.628Z,60.28
2022-12-23T10:20:52.594Z,59.15
2022-12-23T10:23:32.590Z,61.20
2022-12-23T10:26:05.385Z,60.13
2022-12-23T10:34:04.035Z,52.87
2022-12-23T10:36:42.347Z,52.28
2022-12-23T10:39:21.498Z,53.33
2022-12-23T10:41:59.211Z,60.75
2022-12-23T10:44:50.137Z,53.20
2022-12-23T10:47:26.739Z,49.22
2022-12-23T10:50:09.962Z,81.35
2022-12-23T10:52:41.314Z,57.47
2022-12-23T10:55:22.469Z,58.35
2022-12-23T10:57:51.850Z,67.53
2022-12-23T11:00:24.494Z,56.13
2022-12-23T11:03:09.706Z,63.65
2022-12-23T11:05:39.646Z,59.72
2022-12-23T11:08:07.959Z,57.88
2022-12-23T11:10:36.693Z,60.13
2022-12-23T11:13:04.945Z,60.20
2022-12-23T11:15:35.063Z,61.60
2022-12-23T11:18:08.573Z,65.47
2022-12-23T11:20:38.042Z,55.83
2022-12-23T11:23:23.194Z,67.85
2022-12-23T11:26:02.503Z,62.63
2022-12-23T11:28:31.981Z,61.15
2022-12-23T11:31:05.696Z,72.03
2022-12-23T11:33:36.669Z,74.82
2022-12-23T11:36:08.217Z,68.28
2022-12-23T11:38:48.659Z,67.93
2022-12-23T11:41:21.979Z,59.42
2022-12-23T11:43:57.784Z,65.35
2022-12-23T11:46:28.824Z,64.28
2022-12-23T11:49:15.291Z,67.68
2022-12-23T11:51:44.065Z,62.22
2022-12-23T11:54:20.361Z,65.90
2022-12-23T11:56:52.535Z,63.95
2022-12-23T11:59:30.074Z,71.00
2022-12-23T12:02:00.758Z,64.80
2022-12-23T12:04:33.745Z,64.93
2022-12-23T12:07:03.133Z,67.53
2022-12-23T12:09:33.912Z,66.70
2022-12-23T12:12:06.610Z,62.97
2022-12-23T12:14:43.134Z,69.70
2022-12-23T12:17:19.220Z,63.67
2022-12-23T12:19:57.950Z,70.75
2022-12-23T12:22:33.863Z,75.20
2022-12-23T12:25:13.832Z,86.38
2022-12-23T12:27:45.402Z,73.22
2022-12-23T12:30:19.334Z,68.13
2022-12-23T12:32:55.196Z,74.60
2022-12-23T12:35:28.478Z,70.10
2022-12-23T12:38:01.911Z,66.20
2022-12-23T12:40:37.547Z,72.50
2022-12-23T12:43:18.127Z,71.95
2022-12-23T12:45:52.382Z,73.50
2022-12-23T12:48:42.399Z,79.45
2022-12-23T12:51:18.211Z,72.22
2022-12-23T12:54:04.994Z,80.50
2022-12-23T12:56:41.939Z,78.15
2022-12-23T12:59:17.201Z,75.47
2022-12-23T13:01:54.816Z,79.72
2022-12-23T13:04:53.286Z,79.05
2022-12-23T13:07:30.892Z,79.38
2022-12-23T13:10:08.003Z,78.57
2022-12-23T13:12:51.452Z,81.82
2022-12-23T13:15:26.035Z,89.07
2022-12-23T13:18:12.933Z,80.93
2022-12-23T13:20:47.659Z,76.72
2022-12-23T13:23:42.786Z,74.18
2022-12-23T13:26:19.130Z,80.25
2022-12-23T13:28:57.521Z,69.55
2022-12-23T13:31:41.570Z,73.10
2022-12-23T13:34:24.050Z,70.55
2022-12-23T13:37:03.059Z,75.82
2022-12-23T13:39:46.854Z,83.07
2022-12-23T13:42:31.311Z,71.88
2022-12-23T13:45:04.948Z,81.65
2022-12-23T13:47:44.417Z,87.93
2022-12-23T13:50:18.371Z,82.65
2022-12-23T13:53:02.965Z,101.80
2022-12-23T13:55:49.063Z,74.05
2022-12-23T13:58:19.701Z,100.13
2022-12-23T14:00:59.134Z,86.60
2022-12-23T14:03:34.835Z,108.82
2022-12-23T14:06:44.128Z,88.00
2022-12-23T14:09:17.079Z,74.88
2022-12-23T14:11:46.301Z,84.05
2022-12-23T14:14:24.582Z,92.35
2022-12-23T14:17:08.532Z,87.68
2022-12-23T14:19:59.755Z,97.90
2022-12-23T14:22:52.937Z,81.22
2022-12-23T14:28:19.584Z,80.95
2022-12-23T14:30:48.689Z,91.70
2022-12-23T14:33:28.300Z,88.00
2022-12-23T14:35:59.407Z,90.88
2022-12-23T14:38:38.258Z,100.60
2022-12-23T14:41:25.408Z,82.57
2022-12-23T14:43:59.805Z,114.00
2022-12-23T14:46:58.732Z,105.07
2022-12-23T14:49:41.465Z,119.43
2022-12-23T14:52:44.274Z,93.32
2022-12-23T14:55:45.138Z,88.20
2022-12-23T14:58:42.972Z,105.10
2022-12-23T15:01:16.852Z,95.93
2022-12-23T15:03:48.822Z,81.70
2022-12-23T15:06:21.944Z,93.10
2022-12-23T15:08:52.371Z,77.22
2022-12-23T15:11:28.413Z,94.03
2022-12-23T15:13:58.487Z,105.82
2022-12-23T15:16:35.253Z,87.10
2022-12-23T15:19:14.607Z,100.47
2022-12-23T15:21:47.559Z,97.07
2022-12-23T15:24:21.255Z,101.25
2022-12-23T15:27:24.485Z,109.85
2022-12-23T15:29:45.091Z,115.70
2022-12-23T15:32:13.438Z,113.53
2022-12-23T15:34:43.109Z,112.45
2022-12-23T15:37:17.132Z,92.35
2022-12-23T15:39:47.061Z,99.05
2022-12-23T15:42:23.019Z,104.07
2022-12-23T15:44:51.536Z,102.65
2022-12-23T15:47:30.264Z,85.50
2022-12-23T15:50:00.523Z,92.38
2022-12-23T15:52:31.798Z,107.75
2022-12-23T15:55:03.921Z,81.05
2022-12-23T15:57:32.700Z,109.25
2022-12-23T16:00:01.307Z,113.88
2022-12-23T16:05:27.943Z,106.75
2022-12-23T16:08:12.871Z,100.55
2022-12-23T16:10:41.981Z,120.82
2022-12-23T16:13:19.195Z,102.65
2022-12-23T16:15:47.930Z,130.60
2022-12-23T16:18:22.945Z,105.68
2022-12-23T16:20:54.704Z,121.07
2022-12-23T16:23:25.606Z,86.03
2022-12-23T16:25:54.683Z,92.78
2022-12-23T16:28:27.671Z,111.05
2022-12-23T16:30:58.323Z,128.95
2022-12-23T16:33:37.066Z,125.28
2022-12-23T16:36:21.522Z,113.45
2022-12-23T16:38:52.709Z,118.90
2022-12-23T16:41:21.868Z,119.72
2022-12-23T16:43:52.857Z,157.88
2022-12-23T16:46:23.530Z,123.28
2022-12-23T16:48:55.617Z,132.88
2022-12-23T16:51:24.792Z,105.10
2022-12-23T16:53:56.550Z,106.80
2022-12-23T16:56:28.163Z,122.28
2022-12-23T16:58:56.291Z,126.13
2022-12-23T17:01:27.781Z,110.05
2022-12-23T17:03:57.081Z,144.32
2022-12-23T17:06:29.495Z,124.15
2022-12-23T17:08:59.167Z,119.65
2022-12-23T17:11:36.805Z,114.95
2022-12-23T17:14:10.518Z,107.95
2022-12-23T17:16:43.785Z,136.98
2022-12-23T17:19:12.193Z,105.07
2022-12-23T17:21:43.275Z,107.07
2022-12-23T17:24:18.521Z,124.60
2022-12-23T17:26:46.796Z,122.70
2022-12-23T17:29:15.068Z,129.45
2022-12-23T17:31:44.384Z,106.28
2022-12-23T17:34:16.876Z,101.20
2022-12-23T17:36:49.900Z,116.35
2022-12-23T17:39:22.606Z,105.95
2022-12-23T17:41:51.578Z,100.53
2022-12-23T17:44:20.564Z,108.95
2022-12-23T17:46:48.818Z,104.90
2022-12-23T17:49:16.995Z,100.97
2022-12-23T17:51:45.300Z,102.93
2022-12-23T17:54:24.496Z,89.85
2022-12-23T17:56:53.418Z,87.72
2022-12-23T17:59:21.819Z,90.43
2022-12-23T18:01:50.370Z,120.10
2022-12-23T18:04:18.713Z,134.18
2022-12-23T18:06:46.880Z,148.63
2022-12-23T18:09:15.038Z,130.95
2022-12-23T18:11:46.638Z,120.60
2022-12-23T18:14:18.432Z,105.32
2022-12-23T18:16:46.792Z,93.85
2022-12-23T18:19:18.859Z,171.95
2022-12-23T18:21:47.538Z,183.30
2022-12-23T18:24:16.043Z,88.45
2022-12-23T18:26:45.745Z,103.30
2022-12-23T18:29:14.003Z,155.13
2022-12-23T18:31:51.444Z,93.75
2022-12-23T18:34:21.065Z,81.10
2022-12-23T18:36:51.923Z,92.28
2022-12-23T18:39:20.328Z,79.25
2022-12-23T18:41:50.083Z,190.32
2022-12-23T18:44:20.852Z,121.30
2022-12-23T18:46:49.736Z,217.50
2022-12-23T18:49:18.023Z,133.35
2022-12-23T18:51:46.318Z,117.80
2022-12-23T18:54:15.565Z,147.43
2022-12-23T18:56:43.927Z,152.45
2022-12-23T18:59:22.822Z,101.20
2022-12-23T19:01:58.266Z,153.73
2022-12-23T19:04:26.890Z,125.20
2022-12-23T19:06:55.906Z,114.88
2022-12-23T19:09:25.807Z,133.55
2022-12-23T19:11:55.099Z,79.20
2022-12-23T19:14:24.709Z,105.25
2022-12-23T19:16:53.170Z,86.43
2022-12-23T19:19:21.631Z,103.70
2022-12-23T19:21:49.913Z,88.60
2022-12-23T19:24:18.222Z,80.10
2022-12-23T19:26:46.472Z,82.50
2022-12-23T19:29:14.609Z,95.15
2022-12-23T19:31:44.241Z,137.93
2022-12-23T19:34:15.464Z,158.23
2022-12-23T19:36:44.937Z,78.97
2022-12-23T19:39:16.892Z,83.95
2022-12-23T19:41:45.822Z,82.18
2022-12-23T19:44:14.346Z,72.57
2022-12-23T19:46:44.231Z,123.93
2022-12-23T19:49:19.562Z,59.05
2022-12-23T19:51:49.018Z,54.85
2022-12-23T19:54:17.410Z,65.35
2022-12-23T19:56:46.005Z,86.00
2022-12-23T19:59:14.669Z,59.15
2022-12-23T20:01:45.306Z,96.40
2022-12-23T20:04:14.032Z,115.70
2022-12-23T20:06:46.124Z,86.70
2022-12-23T20:09:14.946Z,99.95
2022-12-23T20:11:44.767Z,127.78
2022-12-23T20:14:15.548Z,121.47
2022-12-23T20:16:45.742Z,85.25
2022-12-23T20:19:14.322Z,106.85
2022-12-23T20:21:42.753Z,68.72
2022-12-23T20:24:11.305Z,76.35
2022-12-23T20:26:39.823Z,68.25
2022-12-23T20:29:07.981Z,89.38
2022-12-23T20:31:38.404Z,72.57
2022-12-23T20:34:09.795Z,74.70
2022-12-23T20:36:38.486Z,71.97
2022-12-23T20:39:07.622Z,64.68
2022-12-23T20:41:36.351Z,61.97
2022-12-23T20:46:53.244Z,47.60
2022-12-23T20:49:23.350Z,58.67
2022-12-23T20:51:51.642Z,48.70
2022-12-23T20:54:19.844Z,64.85
2022-12-23T20:56:48.072Z,50.40
2022-12-23T20:59:16.285Z,56.10
2022-12-23T21:01:44.732Z,91.00
2022-12-23T21:04:15.994Z,57.53
2022-12-23T21:06:46.521Z,66.35
2022-12-23T21:09:16.047Z,73.45
2022-12-23T21:11:46.928Z,113.80
2022-12-23T21:14:16.206Z,69.88
2022-12-23T21:16:44.819Z,58.08
2022-12-23T21:19:17.210Z,64.20
2022-12-23T21:21:47.650Z,101.03
2022-12-23T21:24:16.000Z,105.13
2022-12-23T21:26:48.941Z,96.13
2022-12-23T21:29:21.969Z,91.57
2022-12-23T21:31:50.180Z,126.82
2022-12-23T21:34:18.373Z,92.95
2022-12-23T21:36:48.037Z,91.63
2022-12-23T21:39:17.373Z,83.35
2022-12-23T21:41:46.322Z,131.02
2022-12-23T21:44:15.140Z,110.50
2022-12-23T21:46:44.048Z,104.25
2022-12-23T21:49:12.622Z,65.43
2022-12-23T21:51:41.718Z,101.38
2022-12-23T21:54:12.680Z,92.38
2022-12-23T21:56:47.295Z,107.00
2022-12-23T21:59:16.191Z,134.82
2022-12-23T22:01:44.718Z,138.10
2022-12-23T22:04:13.071Z,109.93
2022-12-23T22:06:44.687Z,91.53
2022-12-23T22:09:16.458Z,70.32
2022-12-23T22:11:45.424Z,133.02
2022-12-23T22:14:19.772Z,128.05
2022-12-23T22:16:48.593Z,86.25
2022-12-23T22:19:18.197Z,153.95
2022-12-23T22:21:46.596Z,118.88
2022-12-23T22:24:16.498Z,74.78
2022-12-23T22:26:44.871Z,183.27
2022-12-23T22:29:13.271Z,70.15
2022-12-23T22:31:44.249Z,86.43
2022-12-23T22:34:15.273Z,112.53
2022-12-23T22:36:43.611Z,56.20
2022-12-23T22:39:19.397Z,68.68
2022-12-23T22:41:50.319Z,64.65
2022-12-23T22:44:19.400Z,86.57
2022-12-23T22:46:47.673Z,72.55
2022-12-23T22:49:16.904Z,68.32
2022-12-23T22:51:45.451Z,126.43
2022-12-23T22:54:14.323Z,96.90
2022-12-23T22:56:43.562Z,119.30
2022-12-23T22:59:20.941Z,132.27
2022-12-23T23:01:50.777Z,115.38
2022-12-23T23:04:19.462Z,111.78
2022-12-23T23:06:47.661Z,121.10
2022-12-23T23:09:18.119Z,126.35
2022-12-23T23:11:46.984Z,126.30
2022-12-23T23:14:17.304Z,147.63
2022-12-23T23:16:45.632Z,96.68
2022-12-23T23:19:15.306Z,97.65
2022-12-23T23:21:43.639Z,98.25
2022-12-23T23:24:12.136Z,76.95
2022-12-23T23:26:40.410Z,86.05
2022-12-23T23:29:08.629Z,113.70
2022-12-23T23:31:43.335Z,93.57
2022-12-23T23:34:12.167Z,118.72
2022-12-23T23:36:40.765Z,86.45
2022-12-23T23:39:13.806Z,101.40
2022-12-23T23:41:42.246Z,83.30
2022-12-23T23:44:11.639Z,91.93
2022-12-23T23:46:41.415Z,91.15
2022-12-23T23:49:09.733Z,95.03
2022-12-23T23:51:37.944Z,82.65
2022-12-23T23:54:06.258Z,103.70
2022-12-23T23:56:38.707Z,91.38
2022-12-23T23:59:07.785Z,94.15
